Latest Weather Observations for Longreach

IDQ60801

Issued at 1:05 pm EST Thursday 24 April 2014 (issued every 30 minutes, with the page automatically refreshed every 10 minutes)

About weather observations | Map of weather stations | Latest weather observations for QLD | Other Formats
Station Details ID: 036031 Name: LONGREACH AERO Lat: -23.44 Lon: 144.28 Height: 192.2 m
Data from the previous 72 hours. | See also: Recent months at Longreach
Date/Time
EST
Temp
°C
App
Temp
°C
Dew
Point
Rel
Hum
%
Delta-T
°C
Wind Press
QNH
hPa
Press
MSL
hPa
Rain
since 9 am
mm
Dir
 
Spd
km/h
Gust
km/h
Spd
kts
Gust
kts
24/01:00pm 31.5 27.4 7.9 23 13.1 E 19 33 10 18 1013.4 - 0.0
24/12:30pm 30.2 27.7 9.8 28 11.6 NE 13 20 7 11 1014.0 - 0.0
24/12:00pm 30.4 28.2 12.1 32 10.8 E 15 28 8 15 1014.7 1013.8 0.0
24/11:30am 30.6 28.3 13.1 34 10.5 ENE 17 30 9 16 1015.1 - 0.0
24/11:00am 29.0 27.0 13.9 39 9.1 ENE 17 28 9 15 1015.9 - 0.0
24/10:30am 29.0 27.5 15.2 43 8.5 NE 17 24 9 13 1016.2 - 0.0
24/10:00am 28.2 26.8 15.6 46 7.8 E 17 26 9 14 1016.4 - 0.0
24/09:30am 26.7 26.1 16.6 54 6.3 ENE 15 20 8 11 1016.3 - 0.0
24/09:00am 25.8 25.6 16.8 57 5.6 ESE 13 19 7 10 1016.3 1015.4 0.0
24/08:30am 24.1 23.7 16.3 61 4.8 ESE 13 17 7 9 1016.1 - 0.0
24/08:00am 22.6 21.9 15.5 64 4.3 E 13 15 7 8 1015.8 - 0.0
24/07:30am 20.7 20.0 14.2 66 3.8 SSE 11 11 6 6 1015.6 - 0.0
24/07:00am 19.8 19.1 14.3 70 3.2 SE 11 13 6 7 1015.1 - 0.0
24/06:30am 18.9 17.6 13.7 72 3.0 E 13 13 7 7 1014.9 - 0.0
24/06:00am 19.0 18.3 14.2 73 2.8 ESE 11 11 6 6 1014.4 1013.5 0.0
24/05:30am 19.4 19.2 14.8 75 2.7 E 9 11 5 6 1014.1 - 0.0
24/05:00am 19.4 19.2 14.6 74 2.8 NE 9 11 5 6 1013.9 - 0.0
24/04:30am 20.4 22.0 14.8 70 3.3 CALM 0 0 0 0 1013.8 - 0.0
24/04:00am 20.4 21.0 15.4 73 3.0 N 6 7 3 4 1013.8 - 0.0
24/03:30am 20.4 21.9 14.6 69 3.4 CALM 0 6 0 3 1013.8 - 0.0
24/03:00am 20.8 21.4 15.3 71 3.3 NNE 6 7 3 4 1013.8 1012.9 0.0
24/02:30am 20.6 20.5 13.9 65 3.9 NNE 7 9 4 5 1013.7 - 0.0
24/02:00am 20.8 20.5 14.3 66 3.8 N 9 11 5 6 1013.9 - 0.0
24/01:30am 21.3 21.1 14.7 66 3.9 NNE 9 11 5 6 1014.3 - 0.0
24/01:00am 22.2 21.0 15.0 63 4.3 N 15 19 8 10 1014.5 - 0.0
24/12:30am 23.1 22.7 16.1 64 4.3 N 13 15 7 8 1014.5 - 0.0
24/12:00am 23.0 21.9 15.4 62 4.6 N 15 19 8 10 1014.6 1013.7 0.0
 
Date/Time
EST
Temp
°C
App
Temp
°C
Dew
Point
Rel
Hum
%
Delta-T
°C
Wind Press
QNH
hPa
Press
MSL
hPa
Rain
since 9 am
mm
Dir
 
Spd
km/h
Gust
km/h
Spd
kts
Gust
kts
23/11:30pm 22.1 20.6 13.1 56 5.2 N 13 15 7 8 1014.8 - 0.0
23/11:00pm 23.3 21.8 13.2 53 5.9 N 13 15 7 8 1014.9 - 0.0
23/10:30pm 24.4 23.0 13.3 50 6.5 NNE 13 15 7 8 1014.9 - 0.0
23/10:00pm 26.0 24.1 12.9 44 7.7 NE 15 19 8 10 1015.0 - 0.0
23/09:30pm 27.2 23.8 11.4 37 9.1 NE 20 28 11 15 1015.0 - 0.0
23/09:00pm 27.2 25.4 12.1 39 8.8 E 13 15 7 8 1014.9 1014.0 0.0
23/08:30pm 27.2 26.1 12.1 39 8.8 E 9 11 5 6 1014.7 - 0.0
23/08:00pm 28.0 26.1 10.6 33 9.9 ENE 11 13 6 7 1014.2 - 0.0
23/07:30pm 27.6 25.6 11.5 36 9.3 ENE 13 15 7 8 1014.0 - 0.0
23/07:00pm 28.5 26.5 11.6 35 9.8 E 13 15 7 8 1013.7 - 0.0
23/06:30pm 28.8 27.4 12.1 35 9.8 E 11 13 6 7 1013.4 - 0.0
23/06:00pm 29.5 27.1 11.5 33 10.5 E 15 17 8 9 1013.1 1012.2 0.0
23/05:30pm 30.2 27.7 11.1 30 11.1 E 15 22 8 12 1012.9 - 0.0
23/05:00pm 30.9 28.2 11.7 30 11.3 E 17 20 9 11 1012.7 - 0.0
23/04:30pm 30.6 27.9 11.7 31 11.1 E 17 20 9 11 1012.5 - 0.0
23/04:00pm 30.9 28.3 11.9 31 11.2 E 17 24 9 13 1012.6 - 0.0
23/03:30pm 30.9 29.0 11.9 31 11.2 ESE 13 22 7 12 1012.7 - 0.0
23/03:00pm 31.3 29.5 12.0 30 11.4 NE 13 20 7 11 1012.8 1011.9 0.0
23/02:30pm 32.2 29.4 11.5 28 12.2 ENE 17 26 9 14 1013.0 - 0.0
23/02:00pm 30.5 28.0 12.3 32 10.8 ENE 17 24 9 13 1013.3 - 0.0
23/01:30pm 30.1 28.1 12.8 34 10.3 ENE 15 22 8 12 1013.8 - 0.0
23/01:00pm 31.0 28.3 12.8 32 10.9 NNE 19 28 10 15 1014.2 - 0.0
23/12:30pm 29.2 26.9 14.2 40 9.1 NE 19 28 10 15 1014.8 - 0.0
23/12:00pm 29.3 26.4 13.9 39 9.3 E 22 28 12 15 1015.6 1014.6 0.0
23/11:30am 29.2 27.4 14.4 40 9.0 ENE 17 26 9 14 1016.3 - 0.0
23/11:00am 28.3 27.5 15.1 44 8.1 ENE 13 22 7 12 1016.7 - 0.0
23/10:30am 28.2 28.2 15.3 45 7.9 N 9 15 5 8 1017.1 - 0.0
23/10:00am 26.4 26.5 15.4 50 6.7 ENE 9 17 5 9 1017.5 - 0.0
23/09:30am 26.5 26.4 16.0 52 6.5 N 11 17 6 9 1017.5 - 0.0
23/09:00am 25.2 24.8 15.1 53 6.1 N 11 15 6 8 1017.4 1016.5 0.0
23/08:30am 24.9 24.1 12.9 47 7.0 NE 9 15 5 8 1017.2 - 0.0
23/08:00am 22.6 21.6 10.9 47 6.5 ENE 7 11 4 6 1016.9 - 0.0
23/07:30am 20.8 19.7 9.9 49 5.9 E 6 9 3 5 1016.7 - 0.0
23/07:00am 20.0 18.1 8.9 48 5.9 NE 9 11 5 6 1016.2 - 0.0
23/06:30am 19.7 17.4 8.9 49 5.7 ENE 11 11 6 6 1015.9 - 0.0
23/06:00am 20.1 17.7 8.5 47 6.1 NE 11 13 6 7 1015.7 1014.7 0.0
23/05:30am 20.3 17.1 8.3 46 6.3 ENE 15 17 8 9 1015.4 - 0.0
23/05:00am 19.7 16.8 8.2 47 6.0 ENE 13 13 7 7 1015.2 - 0.0
23/04:30am 19.8 17.4 8.6 48 5.9 ENE 11 11 6 6 1015.1 - 0.0
23/04:00am 20.4 17.9 8.2 45 6.4 NE 11 13 6 7 1015.0 - 0.0
23/03:30am 20.4 17.5 8.2 45 6.4 ENE 13 13 7 7 1014.8 - 0.0
23/03:00am 21.2 19.3 9.1 46 6.5 E 9 11 5 6 1014.9 1014.0 0.0
23/02:30am 21.6 19.5 8.2 42 7.1 NE 9 13 5 7 1015.2 - 0.0
23/02:00am 22.4 19.5 8.3 40 7.5 NE 13 20 7 11 1015.1 - 0.0
23/01:30am 23.6 20.0 8.3 37 8.2 ENE 17 20 9 11 1015.1 - 0.0
23/01:00am 23.4 20.6 8.7 39 7.9 ENE 13 17 7 9 1015.5 - 0.0
23/12:30am 23.4 20.5 8.2 37 8.1 ENE 13 17 7 9 1015.7 - 0.0
23/12:00am 23.4 20.5 8.2 37 8.1 E 13 15 7 8 1015.9 1014.9 0.0
 
Date/Time
EST
Temp
°C
App
Temp
°C
Dew
Point
Rel
Hum
%
Delta-T
°C
Wind Press
QNH
hPa
Press
MSL
hPa
Rain
since 9 am
mm
Dir
 
Spd
km/h
Gust
km/h
Spd
kts
Gust
kts
22/11:30pm 23.0 20.0 7.6 37 8.1 E 13 15 7 8 1016.0 - 0.0
22/11:00pm 23.4 19.5 7.2 35 8.5 ESE 17 19 9 10 1016.0 - 0.0
22/10:30pm 23.2 19.7 7.1 35 8.4 ESE 15 17 8 9 1016.5 - 0.0
22/10:00pm 23.7 20.0 6.5 33 8.9 ESE 15 17 8 9 1016.4 - 0.0
22/09:30pm 23.6 20.1 7.2 35 8.6 ESE 15 17 8 9 1016.6 - 0.0
22/09:00pm 24.5 21.3 6.7 32 9.3 ESE 13 15 7 8 1016.7 1015.8 0.0
22/08:30pm 24.7 21.1 6.8 31 9.4 E 15 17 8 9 1016.5 - 0.0
22/08:00pm 25.8 22.0 6.0 28 10.3 ESE 15 17 8 9 1016.0 - 0.0
22/07:30pm 26.6 22.7 5.3 25 11.0 ESE 15 17 8 9 1015.7 - 0.0
22/07:00pm 27.3 23.4 5.3 24 11.4 ESE 15 19 8 10 1015.2 - 0.0
22/06:30pm 28.0 24.0 5.1 23 11.9 ESE 15 17 8 9 1015.0 - 0.0
22/06:00pm 28.8 24.6 5.6 23 12.2 ESE 17 22 9 12 1014.6 1013.7 0.0
22/05:30pm 29.7 26.4 6.4 23 12.5 ESE 13 20 7 11 1014.3 - 0.0
22/05:00pm 30.5 26.8 6.3 22 13.0 SE 15 22 8 12 1014.0 - 0.0
22/04:30pm 30.7 26.8 7.0 22 12.9 ESE 17 26 9 14 1014.0 - 0.0
22/04:00pm 30.2 27.4 8.4 25 12.1 ESE 13 20 7 11 1014.1 - 0.0
22/03:30pm 31.2 27.4 7.6 23 13.0 ESE 17 26 9 14 1014.2 - 0.0
22/03:00pm 30.7 27.5 8.5 25 12.4 ENE 15 20 8 11 1014.3 1013.4 0.0
22/02:30pm 30.0 26.9 8.9 26 11.8 SE 15 20 8 11 1014.6 - 0.0
22/02:00pm 30.9 28.4 8.0 24 12.7 NNE 11 22 6 12 1014.9 - 0.0
22/01:30pm 30.5 27.9 7.8 24 12.5 ENE 11 24 6 13 1015.7 - 0.0
22/01:00pm 30.0 26.8 8.6 26 11.9 ENE 15 24 8 13 1016.2 - 0.0
22/12:30pm 29.9 26.3 8.5 26 11.9 ENE 17 26 9 14 1016.7 - 0.0
22/12:00pm 29.1 27.1 10.1 30 10.8 ENE 11 13 6 7 1017.3 1016.4 0.0
22/11:30am 29.5 26.7 11.2 32 10.6 NNE 17 32 9 17 1017.9 - 0.0
22/11:00am 28.3 24.4 10.8 33 10.0 N 22 32 12 17 1018.5 - 0.0
22/10:30am 27.8 23.4 10.3 33 9.9 NNE 24 33 13 18 1018.8 - 0.0
22/10:00am 27.1 21.6 10.5 35 9.4 NNE 30 37 16 20 1019.1 - 0.0
22/09:30am 26.0 20.6 11.0 39 8.5 NNE 30 39 16 21 1019.2 - 0.0
22/09:00am 24.9 18.8 10.4 40 8.1 NNE 33 41 18 22 1019.1 1018.2 0.0
22/08:30am 23.8 18.4 11.0 44 7.2 NNE 30 39 16 21 1018.9 - 0.0
22/08:00am 22.3 17.7 11.2 49 6.2 NE 26 32 14 17 1018.7 - 0.0
22/07:30am 20.6 17.6 10.8 53 5.4 NE 17 24 9 13 1018.5 - 0.0
22/07:00am 18.7 16.1 10.6 59 4.4 NE 15 17 8 9 1018.1 - 0.0
22/06:30am 18.4 15.7 10.4 59 4.3 NE 15 17 8 9 1017.8 - 0.0
22/06:00am 18.4 15.7 10.2 59 4.4 NE 15 17 8 9 1017.5 1016.6 0.0
22/05:30am 18.6 15.7 9.8 56 4.7 NE 15 19 8 10 1017.2 - 0.0
22/05:00am 18.7 15.7 9.3 54 5.0 NE 15 19 8 10 1017.1 - 0.0
22/04:30am 19.3 15.8 8.9 51 5.5 NE 17 22 9 12 1017.2 - 0.0
22/04:00am 19.8 15.9 8.6 48 5.9 ENE 19 26 10 14 1016.9 - 0.0
22/03:30am 19.9 15.8 8.0 46 6.2 ENE 19 24 10 13 1016.9 - 0.0
22/03:00am 20.6 16.5 7.7 43 6.7 ENE 19 24 10 13 1017.0 1016.1 0.0
22/02:30am 21.0 16.8 7.3 41 7.1 ENE 19 26 10 14 1017.0 - 0.0
22/02:00am 21.5 17.2 7.0 39 7.5 ENE 19 24 10 13 1017.0 - 0.0
22/01:30am 21.9 17.9 6.8 37 7.8 NE 17 20 9 11 1017.2 - 0.0
22/01:00am 21.8 18.2 6.9 38 7.7 ENE 15 19 8 10 1017.1 - 0.0
22/12:30am 22.0 18.7 6.6 37 7.9 ENE 13 17 7 9 1017.2 - 0.0
22/12:00am 22.4 18.3 6.4 35 8.2 ENE 17 19 9 10 1017.2 1016.3 0.0
 
Date/Time
EST
Temp
°C
App
Temp
°C
Dew
Point
Rel
Hum
%
Delta-T
°C
Wind Press
QNH
hPa
Press
MSL
hPa
Rain
since 9 am
mm
Dir
 
Spd
km/h
Gust
km/h
Spd
kts
Gust
kts
21/11:30pm 22.0 17.9 6.1 35 8.1 ENE 17 19 9 10 1017.3 - 0.0
21/11:00pm 22.8 19.1 6.5 35 8.4 NE 15 17 8 9 1017.3 - 0.0
21/10:30pm 23.4 18.9 6.3 33 8.8 ENE 19 22 10 12 1017.3 - 0.0
21/10:00pm 23.5 19.3 5.6 31 9.1 NE 17 20 9 11 1017.1 - 0.0
21/09:30pm 23.9 19.7 5.7 31 9.3 NE 17 20 9 11 1017.1 - 0.0
21/09:00pm 24.4 20.2 5.7 30 9.6 NE 17 19 9 10 1017.1 1016.2 0.0
21/08:30pm 25.3 21.2 6.0 29 10.0 ENE 17 22 9 12 1017.0 - 0.0
21/08:00pm 25.5 21.8 6.4 29 10.0 ENE 15 19 8 10 1016.7 - 0.0
21/07:30pm 26.5 22.4 6.3 27 10.6 ENE 17 19 9 10 1016.2 - 0.0
21/07:00pm 26.7 22.9 7.5 29 10.3 E 17 19 9 10 1015.9 - 0.0
21/06:30pm 27.9 24.1 7.6 27 11.0 E 17 19 9 10 1015.6 - 0.0
21/06:00pm 29.7 25.5 7.3 24 12.2 E 19 28 10 15 1015.1 1014.2 0.0
21/05:30pm 30.8 26.9 7.2 23 12.9 ENE 17 26 9 14 1014.8 - 0.0
21/05:00pm 31.2 27.2 6.7 21 13.3 E 17 26 9 14 1014.6 - 0.0
21/04:30pm 32.2 28.4 7.4 21 13.7 ESE 17 28 9 15 1014.4 - 0.0
21/04:00pm 32.3 29.1 6.7 20 14.0 ESE 13 24 7 13 1014.4 - 0.0
21/03:30pm 32.2 28.4 7.7 21 13.6 ENE 17 26 9 14 1014.5 - 0.0
21/03:00pm 31.9 29.4 8.0 22 13.3 E 11 24 6 13 1014.6 1013.7 0.0
21/02:30pm 31.6 29.4 8.0 23 13.1 E 9 17 5 9 1015.0 - 0.0
21/02:00pm 31.1 28.0 8.9 25 12.5 E 15 28 8 15 1015.4 - 0.0
21/01:30pm 30.7 28.0 9.0 26 12.2 ENE 13 26 7 14 1015.9 - 0.0

Other Formats:

Comma delimited format used in spreadsheet applications
http://www.bom.gov.au/fwo/IDQ60801/IDQ60801.94346.axf

JavaScript Object Notation format (JSON) in row-major order
http://www.bom.gov.au/fwo/IDQ60801/IDQ60801.94346.json